createdAt,value
2018-09-15T00:00:30.504Z,98.50
2018-09-15T00:02:58.748Z,98.50
2018-09-15T00:05:26.929Z,98.50
2018-09-15T00:07:55.134Z,98.50
2018-09-15T00:10:23.309Z,98.50
2018-09-15T00:12:51.602Z,98.50
2018-09-15T00:15:19.761Z,98.50
2018-09-15T00:17:48.377Z,98.50
2018-09-15T00:20:16.591Z,98.40
2018-09-15T00:22:44.824Z,98.50
2018-09-15T00:25:13.127Z,98.50
2018-09-15T00:27:41.422Z,98.50
2018-09-15T00:30:09.634Z,98.50
2018-09-15T00:32:37.845Z,98.50
2018-09-15T00:35:06.057Z,98.50
2018-09-15T00:37:34.279Z,98.50
2018-09-15T00:40:02.517Z,98.50
2018-09-15T00:42:30.676Z,98.50
2018-09-15T00:44:58.999Z,98.50
2018-09-15T00:47:27.177Z,98.50
2018-09-15T00:49:55.369Z,98.50
2018-09-15T00:52:23.551Z,98.50
2018-09-15T00:54:51.773Z,98.50
2018-09-15T00:57:19.985Z,98.50
2018-09-15T00:59:48.210Z,98.50
2018-09-15T01:02:16.393Z,98.50
2018-09-15T01:04:44.606Z,98.50
2018-09-15T01:07:12.779Z,98.50
2018-09-15T01:09:40.985Z,98.50
2018-09-15T01:12:09.168Z,98.50
2018-09-15T01:14:37.737Z,98.50
2018-09-15T01:17:05.936Z,98.50
2018-09-15T01:19:34.152Z,98.50
2018-09-15T01:22:02.348Z,98.50
2018-09-15T01:24:30.552Z,98.50
2018-09-15T01:26:58.874Z,98.50
2018-09-15T01:29:27.156Z,98.50
2018-09-15T01:31:55.461Z,98.50
2018-09-15T01:34:23.704Z,98.50
2018-09-15T01:36:51.904Z,98.50
2018-09-15T01:39:20.100Z,98.50
2018-09-15T01:41:48.322Z,98.50
2018-09-15T01:44:16.521Z,98.50
2018-09-15T01:46:44.681Z,98.50
2018-09-15T01:49:12.892Z,98.50
2018-09-15T01:51:41.064Z,98.50
2018-09-15T01:54:09.284Z,98.50
2018-09-15T01:56:37.462Z,98.50
2018-09-15T01:59:05.654Z,98.50
2018-09-15T02:01:33.868Z,98.50
2018-09-15T02:04:02.046Z,98.50
2018-09-15T02:06:30.257Z,98.50
2018-09-15T02:08:58.444Z,98.50
2018-09-15T02:11:26.638Z,98.50
2018-09-15T02:13:54.848Z,98.50
2018-09-15T02:16:23.041Z,98.50
2018-09-15T02:18:51.209Z,98.50
2018-09-15T02:21:19.400Z,98.50
2018-09-15T02:23:47.553Z,98.50
2018-09-15T02:26:15.750Z,98.50
2018-09-15T02:28:43.896Z,98.50
2018-09-15T02:31:12.113Z,98.50
2018-09-15T02:33:40.352Z,98.50
2018-09-15T02:36:08.553Z,98.50
2018-09-15T02:38:36.727Z,98.50
2018-09-15T02:41:05.021Z,98.50
2018-09-15T02:43:33.213Z,98.50
2018-09-15T02:46:01.437Z,98.50
2018-09-15T02:48:29.589Z,98.50
2018-09-15T02:50:57.801Z,98.50
2018-09-15T02:53:25.957Z,98.50
2018-09-15T02:55:54.157Z,98.50
2018-09-15T02:58:22.365Z,98.50
2018-09-15T03:00:50.706Z,98.50
2018-09-15T03:03:18.883Z,98.50
2018-09-15T03:05:47.083Z,98.50
2018-09-15T03:08:15.257Z,98.50
2018-09-15T03:10:43.490Z,98.50
2018-09-15T03:13:11.665Z,98.50
2018-09-15T03:15:39.868Z,98.50
2018-09-15T03:18:08.030Z,98.50
2018-09-15T03:20:36.241Z,98.50
2018-09-15T03:23:04.438Z,98.50
2018-09-15T03:25:32.597Z,98.50
2018-09-15T03:28:00.808Z,98.50
2018-09-15T03:30:28.997Z,98.50
2018-09-15T03:32:57.221Z,98.50
2018-09-15T03:35:25.513Z,98.50
2018-09-15T03:37:53.745Z,98.50
2018-09-15T03:40:21.893Z,98.50
2018-09-15T03:42:50.089Z,98.50
2018-09-15T03:45:18.233Z,98.50
2018-09-15T03:47:46.450Z,98.50
2018-09-15T03:50:14.629Z,98.50
2018-09-15T03:52:42.953Z,98.50
2018-09-15T03:55:11.173Z,98.50
2018-09-15T03:57:39.671Z,98.50
2018-09-15T04:00:07.889Z,98.50
2018-09-15T04:02:36.090Z,98.50
2018-09-15T04:05:04.299Z,98.50
2018-09-15T04:07:32.548Z,98.50
2018-09-15T04:10:00.714Z,98.50
2018-09-15T04:12:28.921Z,98.50
2018-09-15T04:14:57.097Z,98.50
2018-09-15T04:17:25.301Z,98.50
2018-09-15T04:19:53.493Z,98.50
2018-09-15T04:22:21.708Z,98.50
2018-09-15T04:24:49.868Z,98.50
2018-09-15T04:27:18.065Z,98.50
2018-09-15T04:29:46.239Z,98.50
2018-09-15T04:32:14.464Z,98.50
2018-09-15T04:34:42.709Z,98.50
2018-09-15T04:37:10.977Z,98.50
2018-09-15T04:39:39.216Z,98.50
2018-09-15T04:42:07.440Z,98.50
2018-09-15T04:44:35.601Z,98.50
2018-09-15T04:47:03.820Z,98.50
2018-09-15T04:49:32.017Z,98.50
2018-09-15T04:52:00.181Z,98.50
2018-09-15T04:54:28.367Z,98.50
2018-09-15T04:56:59.543Z,98.50
2018-09-15T04:59:27.736Z,98.50
2018-09-15T05:01:55.895Z,98.50
2018-09-15T05:04:24.106Z,98.50
2018-09-15T05:06:52.296Z,98.50
2018-09-15T05:09:20.683Z,98.50
2018-09-15T05:11:48.841Z,98.50
2018-09-15T05:14:17.058Z,98.50
2018-09-15T05:16:45.221Z,98.50
2018-09-15T05:19:13.482Z,98.50
2018-09-15T05:21:41.692Z,98.50
2018-09-15T05:24:09.876Z,98.50
2018-09-15T05:26:38.062Z,98.50
2018-09-15T05:29:06.252Z,98.50
2018-09-15T05:31:34.456Z,98.50
2018-09-15T05:34:02.666Z,98.50
2018-09-15T05:36:30.824Z,98.50
2018-09-15T05:38:59.011Z,98.50
2018-09-15T05:41:27.248Z,98.50
2018-09-15T05:43:55.817Z,98.50
2018-09-15T05:46:24.088Z,98.50
2018-09-15T05:48:52.592Z,98.50
2018-09-15T05:51:20.757Z,98.50
2018-09-15T05:53:48.940Z,98.50
2018-09-15T05:56:17.201Z,98.50
2018-09-15T05:58:45.456Z,98.50
2018-09-15T06:01:13.778Z,98.50
2018-09-15T06:03:41.983Z,98.50
2018-09-15T06:06:10.174Z,98.50
2018-09-15T06:08:38.418Z,98.50
2018-09-15T06:11:07.042Z,98.50
2018-09-15T06:13:35.863Z,98.50
2018-09-15T06:16:04.561Z,98.50
2018-09-15T06:18:33.219Z,98.50
2018-09-15T06:21:01.967Z,98.50
2018-09-15T06:23:30.617Z,98.50
2018-09-15T06:25:59.306Z,98.50
2018-09-15T06:28:27.929Z,98.50
2018-09-15T06:30:56.666Z,98.50
2018-09-15T06:33:25.633Z,98.50
2018-09-15T06:35:54.297Z,98.50
2018-09-15T06:38:22.971Z,98.50
2018-09-15T06:40:51.671Z,98.50
2018-09-15T06:43:19.874Z,98.50
2018-09-15T06:45:48.262Z,98.50
2018-09-15T06:48:16.442Z,98.50
2018-09-15T06:50:44.723Z,98.50
2018-09-15T06:53:12.905Z,98.10
2018-09-15T06:55:41.149Z,98.00
2018-09-15T06:58:09.957Z,97.90
2018-09-15T07:00:38.216Z,97.80
2018-09-15T07:03:06.433Z,98.30
2018-09-15T07:05:34.666Z,98.20
2018-09-15T07:08:02.854Z,97.90
2018-09-15T07:10:31.317Z,98.10
2018-09-15T07:12:59.561Z,98.00
2018-09-15T07:15:27.824Z,97.40
2018-09-15T07:17:56.084Z,97.60
2018-09-15T07:20:24.313Z,97.10
2018-09-15T07:22:52.558Z,97.40
2018-09-15T07:25:20.816Z,97.40
2018-09-15T07:27:49.012Z,97.40
2018-09-15T07:30:17.205Z,97.50
2018-09-15T07:32:45.377Z,97.50
2018-09-15T07:35:13.605Z,96.80
2018-09-15T07:37:41.842Z,96.90
2018-09-15T07:40:10.049Z,97.40
2018-09-15T07:42:38.261Z,96.10
2018-09-15T07:45:06.497Z,96.20
2018-09-15T07:47:34.777Z,96.40
2018-09-15T07:50:02.993Z,96.70
2018-09-15T07:52:31.198Z,96.40
2018-09-15T07:54:59.396Z,96.60
2018-09-15T07:57:27.694Z,96.30
2018-09-15T07:59:55.852Z,96.40
2018-09-15T08:02:24.124Z,96.00
2018-09-15T08:04:52.339Z,96.50
2018-09-15T08:07:20.596Z,96.40
2018-09-15T08:09:48.802Z,96.40
2018-09-15T08:12:18.009Z,96.10
2018-09-15T08:14:46.477Z,96.80
2018-09-15T08:17:14.703Z,96.80
2018-09-15T08:19:42.893Z,96.50
2018-09-15T08:22:11.132Z,96.70
2018-09-15T08:24:39.316Z,95.30
2018-09-15T08:27:08.049Z,96.00
2018-09-15T08:29:36.235Z,96.40
2018-09-15T08:32:04.546Z,95.30
2018-09-15T08:34:32.714Z,94.70
2018-09-15T08:37:00.936Z,95.60
2018-09-15T08:39:29.149Z,94.40
2018-09-15T08:41:57.377Z,94.10
2018-09-15T08:44:25.561Z,93.70
2018-09-15T08:46:53.801Z,94.00
2018-09-15T08:49:22.015Z,93.50
2018-09-15T08:51:50.233Z,93.60
2018-09-15T08:54:18.445Z,93.50
2018-09-15T08:56:46.629Z,92.90
2018-09-15T08:59:14.861Z,91.70
2018-09-15T09:01:43.093Z,90.40
2018-09-15T09:04:11.456Z,90.20
2018-09-15T09:06:39.664Z,90.50
2018-09-15T09:09:09.557Z,89.70
2018-09-15T09:11:37.761Z,89.70
2018-09-15T09:14:06.006Z,89.60
2018-09-15T09:16:34.393Z,87.90
2018-09-15T09:19:02.629Z,88.60
2018-09-15T09:21:30.814Z,88.80
2018-09-15T09:23:59.076Z,88.50
2018-09-15T09:26:27.346Z,88.40
2018-09-15T09:28:55.525Z,89.90
2018-09-15T09:31:23.704Z,88.70
2018-09-15T09:33:51.950Z,87.90
2018-09-15T09:36:20.113Z,88.10
2018-09-15T09:38:48.361Z,87.90
2018-09-15T09:41:16.580Z,89.50
2018-09-15T09:43:44.805Z,88.00
2018-09-15T09:46:13.015Z,87.10
2018-09-15T09:48:41.273Z,86.40
2018-09-15T09:51:09.470Z,86.70
2018-09-15T09:53:37.685Z,85.30
2018-09-15T09:56:06.328Z,84.20
2018-09-15T09:58:34.552Z,82.80
2018-09-15T10:01:08.320Z,81.20
2018-09-15T10:03:36.528Z,81.70
2018-09-15T10:06:04.710Z,82.10
2018-09-15T10:08:32.985Z,81.10
2018-09-15T10:11:01.169Z,80.00
2018-09-15T10:13:29.385Z,79.90
2018-09-15T10:15:57.639Z,81.60
2018-09-15T10:18:25.796Z,81.60
2018-09-15T10:20:53.993Z,80.50
2018-09-15T10:23:22.169Z,80.50
2018-09-15T10:25:50.384Z,80.70
2018-09-15T10:28:18.580Z,80.40
2018-09-15T10:30:46.805Z,81.20
2018-09-15T10:33:14.980Z,81.60
2018-09-15T10:35:43.185Z,81.10
2018-09-15T10:38:11.370Z,80.90
2018-09-15T10:40:39.589Z,80.90
2018-09-15T10:43:07.940Z,81.20
2018-09-15T10:45:36.297Z,81.80
2018-09-15T10:48:04.860Z,82.40
2018-09-15T10:50:33.164Z,82.90
2018-09-15T10:53:01.388Z,82.30
2018-09-15T10:55:29.597Z,83.70
2018-09-15T10:57:57.772Z,83.20
2018-09-15T11:00:26.143Z,83.10
2018-09-15T11:02:54.293Z,84.10
2018-09-15T11:05:22.546Z,84.00
2018-09-15T11:07:50.721Z,84.20
2018-09-15T11:10:18.938Z,83.90
2018-09-15T11:12:47.102Z,84.50
2018-09-15T11:15:15.325Z,83.90
2018-09-15T11:17:43.560Z,83.00
2018-09-15T11:20:11.813Z,82.80
2018-09-15T11:22:40.107Z,82.10
2018-09-15T11:25:08.627Z,82.20
2018-09-15T11:27:36.866Z,81.00
2018-09-15T11:30:05.625Z,78.50
2018-09-15T11:32:33.791Z,79.40
2018-09-15T11:35:02.436Z,79.60
2018-09-15T11:37:30.889Z,78.60
2018-09-15T11:39:59.108Z,78.70
2018-09-15T11:42:27.355Z,79.20
2018-09-15T11:44:55.822Z,79.10
2018-09-15T11:47:24.077Z,78.60
2018-09-15T11:49:52.487Z,79.60
2018-09-15T11:52:20.860Z,80.10
2018-09-15T11:54:49.118Z,80.00
2018-09-15T11:57:17.722Z,79.10
2018-09-15T11:59:46.201Z,78.90
2018-09-15T12:02:14.454Z,77.90
2018-09-15T12:04:42.649Z,78.90
2018-09-15T12:07:10.890Z,78.20
2018-09-15T12:09:39.116Z,77.90
2018-09-15T12:12:07.398Z,78.80
2018-09-15T12:14:35.576Z,78.10
2018-09-15T12:17:03.824Z,79.10
2018-09-15T12:19:32.009Z,78.50
2018-09-15T12:22:00.358Z,78.60
2018-09-15T12:24:28.569Z,78.50
2018-09-15T12:26:56.841Z,78.70
2018-09-15T12:29:25.035Z,79.00
2018-09-15T12:31:53.293Z,79.20
2018-09-15T12:34:21.554Z,79.00
2018-09-15T12:36:49.837Z,79.50
2018-09-15T12:39:18.088Z,79.10
2018-09-15T12:41:46.342Z,80.70
2018-09-15T12:44:14.569Z,80.40
2018-09-15T12:46:42.796Z,80.90
2018-09-15T12:49:11.009Z,79.60
2018-09-15T12:51:39.345Z,81.50
2018-09-15T12:54:07.643Z,81.30
2018-09-15T12:56:35.927Z,80.50
2018-09-15T12:59:04.218Z,80.80
2018-09-15T13:01:32.400Z,80.20
2018-09-15T13:04:00.689Z,80.20
2018-09-15T13:06:28.897Z,80.10
2018-09-15T13:08:57.130Z,78.60
2018-09-15T13:11:25.338Z,78.00
2018-09-15T13:13:53.565Z,79.30
2018-09-15T13:16:21.762Z,79.50
2018-09-15T13:18:49.989Z,78.80
2018-09-15T13:21:18.192Z,78.60
2018-09-15T13:23:46.504Z,76.90
2018-09-15T13:26:14.641Z,78.10
2018-09-15T13:28:42.921Z,77.40
2018-09-15T13:31:11.154Z,78.70
2018-09-15T13:33:39.408Z,76.70
2018-09-15T13:36:07.609Z,76.50
2018-09-15T13:38:35.901Z,76.30
2018-09-15T13:41:04.105Z,76.00
2018-09-15T13:43:32.350Z,75.00
2018-09-15T13:46:00.561Z,74.30
2018-09-15T13:48:28.781Z,73.30
2018-09-15T13:50:57.869Z,72.40
2018-09-15T13:53:26.249Z,73.00
2018-09-15T13:55:54.437Z,73.00
2018-09-15T13:58:22.748Z,75.10
2018-09-15T14:00:50.994Z,74.60
2018-09-15T14:03:19.252Z,76.30
2018-09-15T14:05:47.507Z,76.90
2018-09-15T14:08:15.727Z,76.50
2018-09-15T14:10:43.945Z,76.10
2018-09-15T14:13:12.170Z,76.80
2018-09-15T14:15:40.359Z,76.10
2018-09-15T14:18:08.656Z,75.40
2018-09-15T14:20:36.861Z,76.20
2018-09-15T14:23:05.045Z,75.10
2018-09-15T14:25:33.325Z,77.00
2018-09-15T14:28:01.887Z,76.60
2018-09-15T14:30:30.317Z,76.40
2018-09-15T14:32:58.545Z,76.10
2018-09-15T14:35:26.814Z,77.20
2018-09-15T14:37:55.022Z,78.00
2018-09-15T14:40:23.245Z,79.40
2018-09-15T14:42:51.485Z,77.50
2018-09-15T14:45:19.787Z,77.80
2018-09-15T14:47:48.005Z,77.30
2018-09-15T14:50:16.275Z,77.50
2018-09-15T14:52:44.493Z,76.60
2018-09-15T14:55:12.859Z,77.70
2018-09-15T14:57:40.968Z,78.40
2018-09-15T15:00:09.527Z,77.40
2018-09-15T15:02:37.872Z,77.70
2018-09-15T15:05:06.176Z,78.30
2018-09-15T15:07:34.693Z,79.60
2018-09-15T15:10:02.976Z,77.90
2018-09-15T15:12:31.245Z,78.70
2018-09-15T15:15:00.129Z,79.50
2018-09-15T15:17:28.340Z,78.90
2018-09-15T15:19:56.545Z,77.70
2018-09-15T15:22:24.757Z,79.20
2018-09-15T15:24:52.974Z,79.10
2018-09-15T15:27:21.153Z,78.40
2018-09-15T15:29:49.361Z,77.60
2018-09-15T15:32:17.547Z,79.10
2018-09-15T15:34:45.765Z,78.80
2018-09-15T15:37:13.937Z,79.00
2018-09-15T15:39:42.161Z,78.50
2018-09-15T15:42:10.398Z,78.40
2018-09-15T15:44:38.634Z,78.60
2018-09-15T15:47:06.854Z,76.90
2018-09-15T15:49:35.163Z,76.00
2018-09-15T15:52:03.500Z,76.30
2018-09-15T15:54:31.712Z,75.80
2018-09-15T15:57:00.004Z,75.70
2018-09-15T15:59:28.253Z,75.30
2018-09-15T16:01:56.537Z,76.00
2018-09-15T16:04:24.770Z,76.50
2018-09-15T16:06:52.976Z,77.00
2018-09-15T16:09:21.287Z,78.60
2018-09-15T16:11:49.554Z,78.70
2018-09-15T16:14:17.718Z,78.70
2018-09-15T16:16:45.929Z,79.10
2018-09-15T16:19:14.489Z,79.50
2018-09-15T16:21:42.710Z,80.40
2018-09-15T16:24:11.138Z,80.70
2018-09-15T16:26:39.409Z,79.00
2018-09-15T16:29:07.630Z,79.10
2018-09-15T16:31:35.897Z,80.10
2018-09-15T16:34:04.111Z,78.50
2018-09-15T16:36:32.339Z,79.00
2018-09-15T16:39:00.670Z,78.70
2018-09-15T16:41:28.894Z,78.90
2018-09-15T16:43:57.101Z,79.20
2018-09-15T16:46:25.327Z,80.90
2018-09-15T16:48:53.524Z,81.10
2018-09-15T16:51:21.811Z,81.90
2018-09-15T16:53:50.228Z,81.80
2018-09-15T16:56:18.485Z,82.90
2018-09-15T16:58:46.705Z,83.20
2018-09-15T17:01:14.932Z,83.80
2018-09-15T17:03:43.149Z,83.70
2018-09-15T17:06:11.446Z,84.00
2018-09-15T17:08:39.714Z,84.20
2018-09-15T17:11:08.017Z,84.80
2018-09-15T17:13:36.236Z,84.50
2018-09-15T17:16:04.475Z,84.80
2018-09-15T17:18:32.852Z,84.90
2018-09-15T17:21:01.024Z,85.00
2018-09-15T17:23:29.409Z,85.60
2018-09-15T17:25:57.641Z,86.20
2018-09-15T17:28:25.865Z,86.80
2018-09-15T17:30:54.184Z,86.80
2018-09-15T17:33:22.424Z,87.50
2018-09-15T17:35:50.628Z,88.60
2018-09-15T17:38:18.865Z,88.60
2018-09-15T17:40:47.076Z,89.50
2018-09-15T17:43:15.466Z,89.10
2018-09-15T17:45:43.745Z,89.00
2018-09-15T17:48:11.956Z,88.70
2018-09-15T17:50:40.186Z,89.00
2018-09-15T17:53:08.602Z,88.50
2018-09-15T17:55:36.834Z,88.40
2018-09-15T17:58:05.321Z,87.90
2018-09-15T18:00:33.517Z,87.90
2018-09-15T18:03:01.732Z,87.80
2018-09-15T18:05:29.985Z,87.80
2018-09-15T18:07:58.282Z,88.10
2018-09-15T18:10:26.514Z,88.30
2018-09-15T18:12:54.734Z,87.90
2018-09-15T18:15:22.944Z,87.30
2018-09-15T18:17:51.183Z,87.10
2018-09-15T18:20:19.380Z,87.00
2018-09-15T18:22:47.623Z,87.50
2018-09-15T18:25:15.857Z,86.70
2018-09-15T18:27:44.085Z,86.40
2018-09-15T18:30:12.348Z,86.10
2018-09-15T18:32:40.533Z,86.10
2018-09-15T18:35:08.743Z,86.10
2018-09-15T18:37:36.931Z,86.40
2018-09-15T18:40:05.199Z,86.30
2018-09-15T18:42:33.397Z,86.10
2018-09-15T18:45:01.620Z,86.30
2018-09-15T18:47:29.953Z,86.50
2018-09-15T18:49:58.208Z,86.70
2018-09-15T18:52:26.389Z,86.70
2018-09-15T18:54:54.657Z,86.80
2018-09-15T18:57:22.882Z,86.30
2018-09-15T18:59:51.213Z,86.80
2018-09-15T19:02:19.409Z,86.60
2018-09-15T19:04:47.614Z,86.10
2018-09-15T19:07:15.845Z,86.10
2018-09-15T19:09:44.091Z,86.70
2018-09-15T19:12:12.382Z,86.60
2018-09-15T19:14:40.671Z,87.40
2018-09-15T19:17:08.834Z,87.30
2018-09-15T19:19:37.078Z,87.90
2018-09-15T19:22:05.343Z,88.40
2018-09-15T19:24:33.609Z,88.70
2018-09-15T19:27:01.873Z,89.00
2018-09-15T19:29:31.242Z,89.70
2018-09-15T19:31:59.442Z,89.40
2018-09-15T19:34:27.641Z,89.60
2018-09-15T19:36:55.809Z,90.10
2018-09-15T19:39:24.054Z,90.40
2018-09-15T19:41:52.258Z,90.20
2018-09-15T19:44:20.465Z,90.90
2018-09-15T19:46:48.703Z,90.60
2018-09-15T19:49:16.917Z,90.50
2018-09-15T19:51:45.093Z,90.50
2018-09-15T19:54:13.325Z,90.00
2018-09-15T19:56:41.642Z,90.10
2018-09-15T19:59:09.896Z,89.60
2018-09-15T20:01:38.152Z,88.90
2018-09-15T20:04:06.433Z,89.00
2018-09-15T20:06:34.721Z,88.70
2018-09-15T20:09:03.292Z,89.60
2018-09-15T20:11:31.512Z,89.80
2018-09-15T20:13:59.717Z,90.20
2018-09-15T20:16:26.612Z,90.30
2018-09-15T20:18:53.440Z,90.80
2018-09-15T20:21:20.298Z,91.00
2018-09-15T20:23:48.478Z,91.40
2018-09-15T20:26:16.724Z,91.70
2018-09-15T20:28:44.913Z,92.30
2018-09-15T20:31:13.221Z,92.30
2018-09-15T20:33:41.427Z,93.30
2018-09-15T20:36:09.638Z,94.10
2018-09-15T20:38:37.837Z,94.50
2018-09-15T20:41:06.690Z,94.50
2018-09-15T20:43:34.893Z,94.80
2018-09-15T20:46:03.110Z,94.10
2018-09-15T20:48:31.297Z,94.20
2018-09-15T20:50:59.605Z,93.80
2018-09-15T20:53:27.815Z,93.50
2018-09-15T20:55:56.022Z,92.90
2018-09-15T20:58:24.193Z,93.20
2018-09-15T21:00:52.619Z,93.00
2018-09-15T21:03:20.816Z,93.00
2018-09-15T21:05:49.069Z,93.00
2018-09-15T21:08:17.369Z,93.00
2018-09-15T21:10:45.758Z,93.10
2018-09-15T21:13:13.981Z,92.80
2018-09-15T21:15:42.285Z,92.70
2018-09-15T21:18:10.529Z,93.60
2018-09-15T21:20:38.721Z,93.90
2018-09-15T21:23:07.248Z,93.80
2018-09-15T21:25:35.453Z,94.80
2018-09-15T21:28:03.718Z,94.40
2018-09-15T21:30:31.906Z,93.80
2018-09-15T21:33:00.266Z,93.70
2018-09-15T21:35:28.833Z,94.20
2018-09-15T21:37:57.059Z,94.00
2018-09-15T21:40:25.948Z,93.40
2018-09-15T21:42:54.243Z,93.70
2018-09-15T21:45:22.509Z,93.90
2018-09-15T21:47:50.775Z,93.80
2018-09-15T21:50:18.949Z,93.30
2018-09-15T21:52:47.293Z,93.70
2018-09-15T21:55:15.477Z,93.20
2018-09-15T21:57:43.724Z,93.90
2018-09-15T22:00:12.309Z,94.30
2018-09-15T22:02:40.567Z,94.80
2018-09-15T22:05:08.766Z,94.50
2018-09-15T22:07:37.090Z,94.10
2018-09-15T22:10:05.303Z,94.10
2018-09-15T22:12:33.515Z,94.20
2018-09-15T22:15:01.703Z,94.00
2018-09-15T22:17:29.961Z,94.30
2018-09-15T22:19:58.161Z,94.20
2018-09-15T22:22:26.550Z,94.50
2018-09-15T22:24:54.649Z,95.60
2018-09-15T22:27:22.865Z,95.70
2018-09-15T22:29:51.047Z,95.40
2018-09-15T22:32:19.260Z,95.00
2018-09-15T22:34:47.485Z,95.30
2018-09-15T22:37:15.681Z,95.30
2018-09-15T22:39:43.900Z,95.30
2018-09-15T22:42:12.093Z,95.10
2018-09-15T22:44:40.293Z,95.60
2018-09-15T22:47:08.473Z,95.50
2018-09-15T22:49:36.695Z,95.50
2018-09-15T22:52:04.937Z,94.70
2018-09-15T22:54:33.137Z,94.70
2018-09-15T22:57:01.313Z,94.40
2018-09-15T22:59:29.545Z,94.10
2018-09-15T23:01:57.717Z,94.70
2018-09-15T23:04:25.956Z,94.60
2018-09-15T23:06:54.188Z,95.00
2018-09-15T23:09:22.398Z,95.20
2018-09-15T23:11:50.560Z,95.50
2018-09-15T23:14:18.760Z,95.50
2018-09-15T23:16:46.933Z,95.70
2018-09-15T23:19:15.298Z,95.40
2018-09-15T23:21:43.484Z,95.60
2018-09-15T23:24:11.697Z,95.70
2018-09-15T23:26:39.887Z,95.20
2018-09-15T23:29:08.105Z,94.70
2018-09-15T23:31:36.301Z,94.90
2018-09-15T23:34:04.513Z,94.80
2018-09-15T23:36:32.688Z,94.70
2018-09-15T23:39:00.936Z,94.80
2018-09-15T23:41:29.120Z,95.20
2018-09-15T23:43:57.335Z,95.30
2018-09-15T23:46:25.533Z,95.10
2018-09-15T23:48:53.730Z,95.70
2018-09-15T23:51:21.894Z,95.40
2018-09-15T23:53:50.109Z,95.70
2018-09-15T23:56:18.321Z,95.20
2018-09-15T23:58:46.524Z,95.50
